sensor_id;sensor_type;location;lat;lon;timestamp;P1;durP1;ratioP1;P2;durP2;ratioP2
15454;SDS011;21057;51.024;7.540;2023-02-19T00:01:24;34.13;;;31.83;;
15454;SDS011;21057;51.024;7.540;2023-02-19T00:03:52;35.37;;;32.87;;
15454;SDS011;21057;51.024;7.540;2023-02-19T00:06:22;34.37;;;31.97;;
15454;SDS011;21057;51.024;7.540;2023-02-19T00:08:50;34.23;;;31.63;;
15454;SDS011;21057;51.024;7.540;2023-02-19T00:11:18;35.07;;;32.57;;
15454;SDS011;21057;51.024;7.540;2023-02-19T00:13:48;36.00;;;32.83;;
15454;SDS011;21057;51.024;7.540;2023-02-19T00:16:18;32.37;;;30.07;;
15454;SDS011;21057;51.024;7.540;2023-02-19T00:18:47;35.17;;;32.57;;
15454;SDS011;21057;51.024;7.540;2023-02-19T00:21:14;35.27;;;32.63;;
15454;SDS011;21057;51.024;7.540;2023-02-19T00:23:41;36.63;;;33.87;;
15454;SDS011;21057;51.024;7.540;2023-02-19T00:26:10;35.63;;;32.87;;
15454;SDS011;21057;51.024;7.540;2023-02-19T00:28:38;34.63;;;32.10;;
15454;SDS011;21057;51.024;7.540;2023-02-19T00:31:05;33.73;;;31.17;;
15454;SDS011;21057;51.024;7.540;2023-02-19T00:33:34;33.63;;;31.13;;
15454;SDS011;21057;51.024;7.540;2023-02-19T00:36:01;34.97;;;32.53;;
15454;SDS011;21057;51.024;7.540;2023-02-19T00:38:29;35.20;;;32.80;;
15454;SDS011;21057;51.024;7.540;2023-02-19T00:40:57;34.17;;;31.47;;
15454;SDS011;21057;51.024;7.540;2023-02-19T00:43:25;33.60;;;31.00;;
15454;SDS011;21057;51.024;7.540;2023-02-19T00:45:51;37.00;;;33.63;;
15454;SDS011;21057;51.024;7.540;2023-02-19T00:48:18;32.53;;;29.87;;
15454;SDS011;21057;51.024;7.540;2023-02-19T00:50:50;32.97;;;30.07;;
15454;SDS011;21057;51.024;7.540;2023-02-19T00:53:16;34.17;;;31.57;;
15454;SDS011;21057;51.024;7.540;2023-02-19T00:55:44;34.43;;;31.33;;
15454;SDS011;21057;51.024;7.540;2023-02-19T00:58:10;34.33;;;31.37;;
15454;SDS011;21057;51.024;7.540;2023-02-19T01:00:37;34.47;;;31.37;;
15454;SDS011;21057;51.024;7.540;2023-02-19T01:03:04;37.27;;;34.27;;
15454;SDS011;21057;51.024;7.540;2023-02-19T01:05:33;38.40;;;35.37;;
15454;SDS011;21057;51.024;7.540;2023-02-19T01:08:01;37.77;;;34.47;;
15454;SDS011;21057;51.024;7.540;2023-02-19T01:10:28;38.03;;;34.77;;
15454;SDS011;21057;51.024;7.540;2023-02-19T01:12:56;37.03;;;33.87;;
15454;SDS011;21057;51.024;7.540;2023-02-19T01:15:22;36.87;;;34.03;;
15454;SDS011;21057;51.024;7.540;2023-02-19T01:17:49;34.93;;;32.10;;
15454;SDS011;21057;51.024;7.540;2023-02-19T01:20:16;32.63;;;30.13;;
15454;SDS011;21057;51.024;7.540;2023-02-19T01:22:43;34.83;;;31.63;;
15454;SDS011;21057;51.024;7.540;2023-02-19T01:25:11;36.60;;;33.40;;
15454;SDS011;21057;51.024;7.540;2023-02-19T01:27:38;37.27;;;34.23;;
15454;SDS011;21057;51.024;7.540;2023-02-19T01:30:05;38.17;;;34.77;;
15454;SDS011;21057;51.024;7.540;2023-02-19T01:32:33;39.57;;;35.70;;
15454;SDS011;21057;51.024;7.540;2023-02-19T01:34:59;37.20;;;33.97;;
15454;SDS011;21057;51.024;7.540;2023-02-19T01:37:26;42.30;;;38.43;;
15454;SDS011;21057;51.024;7.540;2023-02-19T01:39:53;41.73;;;38.03;;
15454;SDS011;21057;51.024;7.540;2023-02-19T01:42:21;42.03;;;38.27;;
15454;SDS011;21057;51.024;7.540;2023-02-19T01:47:58;40.03;;;36.00;;
15454;SDS011;21057;51.024;7.540;2023-02-19T01:50:29;39.43;;;35.73;;
15454;SDS011;21057;51.024;7.540;2023-02-19T01:53:01;37.40;;;33.87;;
15454;SDS011;21057;51.024;7.540;2023-02-19T01:55:31;38.30;;;34.97;;
15454;SDS011;21057;51.024;7.540;2023-02-19T01:58:01;37.00;;;33.37;;
15454;SDS011;21057;51.024;7.540;2023-02-19T02:00:29;36.83;;;33.37;;
15454;SDS011;21057;51.024;7.540;2023-02-19T02:03:06;36.60;;;33.17;;
15454;SDS011;21057;51.024;7.540;2023-02-19T02:05:39;37.57;;;34.43;;
15454;SDS011;21057;51.024;7.540;2023-02-19T02:08:12;40.43;;;36.83;;
15454;SDS011;21057;51.024;7.540;2023-02-19T02:10:57;39.47;;;36.00;;
15454;SDS011;21057;51.024;7.540;2023-02-19T02:13:26;38.93;;;35.50;;
15454;SDS011;21057;51.024;7.540;2023-02-19T02:15:55;37.50;;;34.60;;
15454;SDS011;21057;51.024;7.540;2023-02-19T02:18:30;39.63;;;36.03;;
15454;SDS011;21057;51.024;7.540;2023-02-19T02:21:13;39.20;;;35.23;;
15454;SDS011;21057;51.024;7.540;2023-02-19T02:24:05;43.60;;;39.30;;
15454;SDS011;21057;51.024;7.540;2023-02-19T02:26:47;44.37;;;39.77;;
15454;SDS011;21057;51.024;7.540;2023-02-19T02:32:37;39.43;;;35.33;;
15454;SDS011;21057;51.024;7.540;2023-02-19T02:35:17;40.47;;;36.83;;
15454;SDS011;21057;51.024;7.540;2023-02-19T02:37:46;38.30;;;34.17;;
15454;SDS011;21057;51.024;7.540;2023-02-19T02:40:15;38.40;;;34.77;;
15454;SDS011;21057;51.024;7.540;2023-02-19T02:42:43;47.27;;;37.90;;
15454;SDS011;21057;51.024;7.540;2023-02-19T02:45:26;37.17;;;33.40;;
15454;SDS011;21057;51.024;7.540;2023-02-19T02:48:00;39.13;;;35.20;;
15454;SDS011;21057;51.024;7.540;2023-02-19T02:50:33;40.57;;;36.90;;
15454;SDS011;21057;51.024;7.540;2023-02-19T02:53:05;38.23;;;34.67;;
15454;SDS011;21057;51.024;7.540;2023-02-19T02:55:54;40.33;;;36.87;;
15454;SDS011;21057;51.024;7.540;2023-02-19T02:58:23;40.40;;;36.43;;
15454;SDS011;21057;51.024;7.540;2023-02-19T03:00:53;39.17;;;35.47;;
15454;SDS011;21057;51.024;7.540;2023-02-19T03:03:42;42.80;;;38.67;;
15454;SDS011;21057;51.024;7.540;2023-02-19T03:06:14;38.77;;;35.20;;
15454;SDS011;21057;51.024;7.540;2023-02-19T03:08:44;41.10;;;37.43;;
15454;SDS011;21057;51.024;7.540;2023-02-19T03:11:15;41.50;;;37.47;;
15454;SDS011;21057;51.024;7.540;2023-02-19T03:14:07;38.87;;;35.50;;
15454;SDS011;21057;51.024;7.540;2023-02-19T03:16:59;39.40;;;35.83;;
15454;SDS011;21057;51.024;7.540;2023-02-19T03:19:55;39.97;;;36.63;;
15454;SDS011;21057;51.024;7.540;2023-02-19T03:22:24;42.37;;;38.57;;
15454;SDS011;21057;51.024;7.540;2023-02-19T03:24:53;39.77;;;35.87;;
15454;SDS011;21057;51.024;7.540;2023-02-19T03:27:42;38.00;;;34.23;;
15454;SDS011;21057;51.024;7.540;2023-02-19T03:30:12;39.37;;;34.87;;
15454;SDS011;21057;51.024;7.540;2023-02-19T03:32:51;36.77;;;33.37;;
15454;SDS011;21057;51.024;7.540;2023-02-19T03:35:21;38.40;;;34.43;;
15454;SDS011;21057;51.024;7.540;2023-02-19T03:37:55;41.20;;;36.80;;
15454;SDS011;21057;51.024;7.540;2023-02-19T03:40:26;43.47;;;39.47;;
15454;SDS011;21057;51.024;7.540;2023-02-19T03:42:58;42.60;;;38.87;;
15454;SDS011;21057;51.024;7.540;2023-02-19T03:45:33;39.90;;;35.63;;
15454;SDS011;21057;51.024;7.540;2023-02-19T03:48:15;39.93;;;35.77;;
15454;SDS011;21057;51.024;7.540;2023-02-19T03:54:09;38.23;;;34.10;;
15454;SDS011;21057;51.024;7.540;2023-02-19T03:56:42;37.57;;;34.17;;
15454;SDS011;21057;51.024;7.540;2023-02-19T03:59:15;36.87;;;33.97;;
15454;SDS011;21057;51.024;7.540;2023-02-19T04:01:57;37.10;;;33.93;;
15454;SDS011;21057;51.024;7.540;2023-02-19T04:04:29;36.90;;;33.40;;
15454;SDS011;21057;51.024;7.540;2023-02-19T04:06:59;37.77;;;34.77;;
15454;SDS011;21057;51.024;7.540;2023-02-19T04:09:27;40.03;;;36.07;;
15454;SDS011;21057;51.024;7.540;2023-02-19T04:11:58;35.20;;;32.07;;
15454;SDS011;21057;51.024;7.540;2023-02-19T04:14:26;38.73;;;35.50;;
15454;SDS011;21057;51.024;7.540;2023-02-19T04:17:00;37.43;;;34.27;;
15454;SDS011;21057;51.024;7.540;2023-02-19T04:19:31;34.63;;;31.23;;
15454;SDS011;21057;51.024;7.540;2023-02-19T04:22:03;36.63;;;33.40;;
15454;SDS011;21057;51.024;7.540;2023-02-19T04:24:32;38.63;;;35.13;;
15454;SDS011;21057;51.024;7.540;2023-02-19T04:27:02;39.63;;;36.27;;
15454;SDS011;21057;51.024;7.540;2023-02-19T04:29:30;38.87;;;34.93;;
15454;SDS011;21057;51.024;7.540;2023-02-19T04:31:57;37.10;;;33.60;;
15454;SDS011;21057;51.024;7.540;2023-02-19T04:34:24;41.90;;;38.43;;
15454;SDS011;21057;51.024;7.540;2023-02-19T04:36:52;42.87;;;38.83;;
15454;SDS011;21057;51.024;7.540;2023-02-19T04:39:26;44.23;;;38.10;;
15454;SDS011;21057;51.024;7.540;2023-02-19T04:41:53;42.23;;;38.83;;
15454;SDS011;21057;51.024;7.540;2023-02-19T04:44:20;42.90;;;38.83;;
15454;SDS011;21057;51.024;7.540;2023-02-19T04:46:47;43.37;;;39.03;;
15454;SDS011;21057;51.024;7.540;2023-02-19T04:49:14;41.60;;;37.87;;
15454;SDS011;21057;51.024;7.540;2023-02-19T04:51:41;40.27;;;36.40;;
15454;SDS011;21057;51.024;7.540;2023-02-19T04:54:09;41.73;;;37.80;;
15454;SDS011;21057;51.024;7.540;2023-02-19T04:56:40;41.00;;;37.73;;
15454;SDS011;21057;51.024;7.540;2023-02-19T04:59:07;39.73;;;36.13;;
15454;SDS011;21057;51.024;7.540;2023-02-19T05:01:35;39.30;;;35.77;;
15454;SDS011;21057;51.024;7.540;2023-02-19T05:04:02;39.87;;;36.00;;
15454;SDS011;21057;51.024;7.540;2023-02-19T05:06:29;41.10;;;37.00;;
15454;SDS011;21057;51.024;7.540;2023-02-19T05:08:56;39.97;;;36.13;;
15454;SDS011;21057;51.024;7.540;2023-02-19T05:13:54;42.00;;;38.30;;
15454;SDS011;21057;51.024;7.540;2023-02-19T05:16:21;40.50;;;36.73;;
15454;SDS011;21057;51.024;7.540;2023-02-19T05:18:48;40.90;;;37.23;;
15454;SDS011;21057;51.024;7.540;2023-02-19T05:21:15;39.40;;;35.87;;
15454;SDS011;21057;51.024;7.540;2023-02-19T05:23:42;42.03;;;37.73;;
15454;SDS011;21057;51.024;7.540;2023-02-19T05:26:11;42.00;;;38.27;;
15454;SDS011;21057;51.024;7.540;2023-02-19T05:28:42;43.47;;;39.77;;
15454;SDS011;21057;51.024;7.540;2023-02-19T05:31:09;40.20;;;36.50;;
15454;SDS011;21057;51.024;7.540;2023-02-19T05:33:37;39.17;;;35.87;;
15454;SDS011;21057;51.024;7.540;2023-02-19T05:36:04;39.40;;;35.83;;
15454;SDS011;21057;51.024;7.540;2023-02-19T05:38:33;38.80;;;35.50;;
15454;SDS011;21057;51.024;7.540;2023-02-19T05:41:07;39.17;;;35.50;;
15454;SDS011;21057;51.024;7.540;2023-02-19T05:43:36;36.20;;;33.33;;
15454;SDS011;21057;51.024;7.540;2023-02-19T05:46:05;34.03;;;31.07;;
15454;SDS011;21057;51.024;7.540;2023-02-19T05:48:41;35.00;;;31.80;;
15454;SDS011;21057;51.024;7.540;2023-02-19T05:51:08;34.83;;;31.50;;
15454;SDS011;21057;51.024;7.540;2023-02-19T05:53:39;33.27;;;30.53;;
15454;SDS011;21057;51.024;7.540;2023-02-19T05:56:14;34.30;;;31.60;;
15454;SDS011;21057;51.024;7.540;2023-02-19T05:58:48;39.33;;;35.57;;
15454;SDS011;21057;51.024;7.540;2023-02-19T06:01:17;38.43;;;34.93;;
15454;SDS011;21057;51.024;7.540;2023-02-19T06:03:48;37.53;;;34.60;;
15454;SDS011;21057;51.024;7.540;2023-02-19T06:06:16;36.43;;;33.53;;
15454;SDS011;21057;51.024;7.540;2023-02-19T06:08:48;39.57;;;35.93;;
15454;SDS011;21057;51.024;7.540;2023-02-19T06:11:16;37.43;;;34.43;;
15454;SDS011;21057;51.024;7.540;2023-02-19T06:13:43;37.87;;;34.87;;
15454;SDS011;21057;51.024;7.540;2023-02-19T06:16:10;35.93;;;32.80;;
15454;SDS011;21057;51.024;7.540;2023-02-19T06:18:38;36.03;;;32.53;;
15454;SDS011;21057;51.024;7.540;2023-02-19T06:21:06;37.17;;;33.43;;
15454;SDS011;21057;51.024;7.540;2023-02-19T06:23:35;34.90;;;31.70;;
15454;SDS011;21057;51.024;7.540;2023-02-19T06:26:08;37.67;;;34.07;;
15454;SDS011;21057;51.024;7.540;2023-02-19T06:28:37;35.07;;;32.17;;
15454;SDS011;21057;51.024;7.540;2023-02-19T06:31:05;35.83;;;32.47;;
15454;SDS011;21057;51.024;7.540;2023-02-19T06:33:34;35.93;;;33.03;;
15454;SDS011;21057;51.024;7.540;2023-02-19T06:36:03;37.83;;;34.67;;
15454;SDS011;21057;51.024;7.540;2023-02-19T06:41:05;36.90;;;33.37;;
15454;SDS011;21057;51.024;7.540;2023-02-19T06:43:33;36.07;;;33.10;;
15454;SDS011;21057;51.024;7.540;2023-02-19T06:46:00;37.33;;;33.87;;
15454;SDS011;21057;51.024;7.540;2023-02-19T06:48:30;38.80;;;35.53;;
15454;SDS011;21057;51.024;7.540;2023-02-19T06:50:57;38.40;;;35.43;;
15454;SDS011;21057;51.024;7.540;2023-02-19T06:53:25;41.93;;;36.60;;
15454;SDS011;21057;51.024;7.540;2023-02-19T06:55:56;37.60;;;34.47;;
15454;SDS011;21057;51.024;7.540;2023-02-19T06:58:23;38.17;;;34.67;;
15454;SDS011;21057;51.024;7.540;2023-02-19T07:00:57;35.07;;;32.13;;
15454;SDS011;21057;51.024;7.540;2023-02-19T07:03:24;35.93;;;32.93;;
15454;SDS011;21057;51.024;7.540;2023-02-19T07:05:58;42.07;;;38.03;;
15454;SDS011;21057;51.024;7.540;2023-02-19T07:08:27;36.67;;;33.87;;
15454;SDS011;21057;51.024;7.540;2023-02-19T07:11:01;41.87;;;38.23;;
15454;SDS011;21057;51.024;7.540;2023-02-19T07:13:27;38.47;;;34.90;;
15454;SDS011;21057;51.024;7.540;2023-02-19T07:15:56;38.70;;;35.13;;
15454;SDS011;21057;51.024;7.540;2023-02-19T07:18:32;38.83;;;35.47;;
15454;SDS011;21057;51.024;7.540;2023-02-19T07:21:01;46.53;;;42.63;;
15454;SDS011;21057;51.024;7.540;2023-02-19T07:23:35;39.43;;;36.13;;
15454;SDS011;21057;51.024;7.540;2023-02-19T07:26:03;36.47;;;32.97;;
15454;SDS011;21057;51.024;7.540;2023-02-19T07:31:05;43.60;;;39.53;;
15454;SDS011;21057;51.024;7.540;2023-02-19T07:33:32;38.20;;;34.83;;
15454;SDS011;21057;51.024;7.540;2023-02-19T07:35:59;37.50;;;34.00;;
15454;SDS011;21057;51.024;7.540;2023-02-19T07:38:26;33.57;;;30.47;;
15454;SDS011;21057;51.024;7.540;2023-02-19T07:40:54;33.07;;;30.30;;
15454;SDS011;21057;51.024;7.540;2023-02-19T07:46:21;33.00;;;30.20;;
15454;SDS011;21057;51.024;7.540;2023-02-19T07:48:48;34.90;;;32.00;;
15454;SDS011;21057;51.024;7.540;2023-02-19T07:51:16;34.07;;;31.03;;
15454;SDS011;21057;51.024;7.540;2023-02-19T07:53:44;34.97;;;32.17;;
15454;SDS011;21057;51.024;7.540;2023-02-19T07:56:13;33.10;;;29.63;;
15454;SDS011;21057;51.024;7.540;2023-02-19T07:58:49;31.97;;;29.17;;
15454;SDS011;21057;51.024;7.540;2023-02-19T08:01:16;31.60;;;28.77;;
15454;SDS011;21057;51.024;7.540;2023-02-19T08:04:04;33.10;;;29.83;;
15454;SDS011;21057;51.024;7.540;2023-02-19T08:06:31;31.43;;;29.00;;
15454;SDS011;21057;51.024;7.540;2023-02-19T08:11:34;34.40;;;31.60;;
15454;SDS011;21057;51.024;7.540;2023-02-19T08:14:22;35.37;;;32.43;;
15454;SDS011;21057;51.024;7.540;2023-02-19T08:16:49;35.67;;;32.93;;
15454;SDS011;21057;51.024;7.540;2023-02-19T08:19:18;37.00;;;33.60;;
15454;SDS011;21057;51.024;7.540;2023-02-19T08:21:51;40.30;;;36.67;;
15454;SDS011;21057;51.024;7.540;2023-02-19T08:24:18;39.60;;;36.50;;
15454;SDS011;21057;51.024;7.540;2023-02-19T08:26:47;36.80;;;33.27;;
15454;SDS011;21057;51.024;7.540;2023-02-19T08:29:14;36.50;;;33.30;;
15454;SDS011;21057;51.024;7.540;2023-02-19T08:31:50;36.07;;;32.43;;
15454;SDS011;21057;51.024;7.540;2023-02-19T08:34:17;39.53;;;35.67;;
15454;SDS011;21057;51.024;7.540;2023-02-19T08:36:53;38.70;;;35.57;;
15454;SDS011;21057;51.024;7.540;2023-02-19T08:39:21;38.23;;;34.93;;
15454;SDS011;21057;51.024;7.540;2023-02-19T08:41:57;37.80;;;34.27;;
15454;SDS011;21057;51.024;7.540;2023-02-19T08:44:24;35.03;;;32.37;;
15454;SDS011;21057;51.024;7.540;2023-02-19T08:46:50;34.40;;;31.50;;
15454;SDS011;21057;51.024;7.540;2023-02-19T08:49:17;36.67;;;33.73;;
15454;SDS011;21057;51.024;7.540;2023-02-19T08:51:46;32.07;;;29.00;;
15454;SDS011;21057;51.024;7.540;2023-02-19T08:56:44;37.50;;;34.37;;
15454;SDS011;21057;51.024;7.540;2023-02-19T08:59:14;38.20;;;35.33;;
15454;SDS011;21057;51.024;7.540;2023-02-19T09:01:41;36.90;;;34.23;;
15454;SDS011;21057;51.024;7.540;2023-02-19T09:04:08;38.03;;;34.93;;
15454;SDS011;21057;51.024;7.540;2023-02-19T09:06:37;32.30;;;30.00;;
15454;SDS011;21057;51.024;7.540;2023-02-19T09:09:04;35.83;;;33.50;;
15454;SDS011;21057;51.024;7.540;2023-02-19T09:11:32;34.57;;;31.80;;
15454;SDS011;21057;51.024;7.540;2023-02-19T09:13:59;34.47;;;31.90;;
15454;SDS011;21057;51.024;7.540;2023-02-19T09:16:27;35.63;;;32.70;;
15454;SDS011;21057;51.024;7.540;2023-02-19T09:18:54;34.20;;;31.70;;
15454;SDS011;21057;51.024;7.540;2023-02-19T09:21:21;33.03;;;30.57;;
15454;SDS011;21057;51.024;7.540;2023-02-19T09:23:47;35.10;;;31.53;;
15454;SDS011;21057;51.024;7.540;2023-02-19T09:26:16;34.83;;;31.63;;
15454;SDS011;21057;51.024;7.540;2023-02-19T09:28:53;34.93;;;31.67;;
15454;SDS011;21057;51.024;7.540;2023-02-19T09:31:20;34.20;;;31.23;;
15454;SDS011;21057;51.024;7.540;2023-02-19T09:33:48;33.47;;;30.73;;
15454;SDS011;21057;51.024;7.540;2023-02-19T09:36:15;34.53;;;31.43;;
15454;SDS011;21057;51.024;7.540;2023-02-19T09:38:43;34.80;;;31.90;;
15454;SDS011;21057;51.024;7.540;2023-02-19T09:41:14;34.83;;;31.67;;
15454;SDS011;21057;51.024;7.540;2023-02-19T09:43:50;34.53;;;31.50;;
15454;SDS011;21057;51.024;7.540;2023-02-19T09:46:23;34.57;;;31.33;;
15454;SDS011;21057;51.024;7.540;2023-02-19T09:49:05;33.50;;;30.77;;
15454;SDS011;21057;51.024;7.540;2023-02-19T09:51:44;31.97;;;29.20;;
15454;SDS011;21057;51.024;7.540;2023-02-19T09:54:28;34.13;;;31.00;;
15454;SDS011;21057;51.024;7.540;2023-02-19T09:56:58;33.23;;;30.63;;
15454;SDS011;21057;51.024;7.540;2023-02-19T09:59:28;33.77;;;30.77;;
15454;SDS011;21057;51.024;7.540;2023-02-19T10:02:02;33.87;;;30.57;;
15454;SDS011;21057;51.024;7.540;2023-02-19T10:04:40;32.80;;;29.67;;
15454;SDS011;21057;51.024;7.540;2023-02-19T10:07:09;34.67;;;30.33;;
15454;SDS011;21057;51.024;7.540;2023-02-19T10:09:37;32.33;;;29.53;;
15454;SDS011;21057;51.024;7.540;2023-02-19T10:12:10;33.63;;;30.50;;
15454;SDS011;21057;51.024;7.540;2023-02-19T10:14:41;35.50;;;31.77;;
15454;SDS011;21057;51.024;7.540;2023-02-19T10:17:12;34.77;;;31.87;;
15454;SDS011;21057;51.024;7.540;2023-02-19T10:19:49;34.03;;;30.63;;
15454;SDS011;21057;51.024;7.540;2023-02-19T10:22:17;32.43;;;29.77;;
15454;SDS011;21057;51.024;7.540;2023-02-19T10:24:45;32.80;;;30.03;;
15454;SDS011;21057;51.024;7.540;2023-02-19T10:27:17;37.63;;;29.87;;
15454;SDS011;21057;51.024;7.540;2023-02-19T10:29:45;33.17;;;30.33;;
15454;SDS011;21057;51.024;7.540;2023-02-19T10:32:25;31.97;;;29.27;;
15454;SDS011;21057;51.024;7.540;2023-02-19T10:35:07;32.60;;;30.00;;
15454;SDS011;21057;51.024;7.540;2023-02-19T10:37:40;33.07;;;29.97;;
15454;SDS011;21057;51.024;7.540;2023-02-19T10:40:14;33.40;;;30.20;;
15454;SDS011;21057;51.024;7.540;2023-02-19T10:42:45;32.73;;;30.10;;
15454;SDS011;21057;51.024;7.540;2023-02-19T10:45:18;33.27;;;30.17;;
15454;SDS011;21057;51.024;7.540;2023-02-19T10:47:53;33.57;;;30.87;;
15454;SDS011;21057;51.024;7.540;2023-02-19T10:50:24;32.47;;;29.37;;
15454;SDS011;21057;51.024;7.540;2023-02-19T10:52:54;33.27;;;30.63;;
15454;SDS011;21057;51.024;7.540;2023-02-19T10:55:31;33.90;;;31.03;;
15454;SDS011;21057;51.024;7.540;2023-02-19T10:58:14;35.50;;;32.73;;
15454;SDS011;21057;51.024;7.540;2023-02-19T11:03:37;33.27;;;30.77;;
15454;SDS011;21057;51.024;7.540;2023-02-19T11:06:06;32.53;;;30.07;;
15454;SDS011;21057;51.024;7.540;2023-02-19T11:11:20;30.97;;;28.53;;
15454;SDS011;21057;51.024;7.540;2023-02-19T11:14:01;30.50;;;28.27;;
15454;SDS011;21057;51.024;7.540;2023-02-19T11:16:37;31.70;;;28.83;;
15454;SDS011;21057;51.024;7.540;2023-02-19T11:19:15;29.27;;;27.13;;
15454;SDS011;21057;51.024;7.540;2023-02-19T11:21:54;29.97;;;27.97;;
15454;SDS011;21057;51.024;7.540;2023-02-19T11:24:24;31.10;;;28.80;;
15454;SDS011;21057;51.024;7.540;2023-02-19T11:26:54;32.43;;;30.10;;
15454;SDS011;21057;51.024;7.540;2023-02-19T11:29:26;31.67;;;28.93;;
15454;SDS011;21057;51.024;7.540;2023-02-19T11:37:52;31.00;;;28.60;;
15454;SDS011;21057;51.024;7.540;2023-02-19T11:43:01;30.47;;;28.27;;
15454;SDS011;21057;51.024;7.540;2023-02-19T11:45:34;31.67;;;29.37;;
15454;SDS011;21057;51.024;7.540;2023-02-19T11:48:13;31.77;;;29.30;;
15454;SDS011;21057;51.024;7.540;2023-02-19T11:50:55;33.67;;;31.10;;
15454;SDS011;21057;51.024;7.540;2023-02-19T11:53:45;31.27;;;29.07;;
15454;SDS011;21057;51.024;7.540;2023-02-19T11:59:07;32.07;;;29.87;;
15454;SDS011;21057;51.024;7.540;2023-02-19T12:02:02;30.57;;;28.27;;
15454;SDS011;21057;51.024;7.540;2023-02-19T12:10:41;29.23;;;27.30;;
15454;SDS011;21057;51.024;7.540;2023-02-19T12:13:26;28.80;;;26.57;;
15454;SDS011;21057;51.024;7.540;2023-02-19T12:16:06;28.87;;;26.77;;
15454;SDS011;21057;51.024;7.540;2023-02-19T12:21:40;28.77;;;26.87;;
15454;SDS011;21057;51.024;7.540;2023-02-19T12:27:14;32.50;;;30.40;;
15454;SDS011;21057;51.024;7.540;2023-02-19T12:33:00;33.00;;;30.90;;
15454;SDS011;21057;51.024;7.540;2023-02-19T12:35:47;36.17;;;33.67;;
15454;SDS011;21057;51.024;7.540;2023-02-19T12:38:24;30.43;;;28.43;;
15454;SDS011;21057;51.024;7.540;2023-02-19T12:41:15;35.77;;;33.30;;
15454;SDS011;21057;51.024;7.540;2023-02-19T12:43:52;34.10;;;32.10;;
15454;SDS011;21057;51.024;7.540;2023-02-19T12:46:27;33.43;;;31.13;;
15454;SDS011;21057;51.024;7.540;2023-02-19T12:49:09;31.50;;;29.37;;
15454;SDS011;21057;51.024;7.540;2023-02-19T12:51:42;34.60;;;32.40;;
15454;SDS011;21057;51.024;7.540;2023-02-19T12:54:13;30.10;;;28.20;;
15454;SDS011;21057;51.024;7.540;2023-02-19T12:56:58;33.87;;;31.80;;
15454;SDS011;21057;51.024;7.540;2023-02-19T12:59:32;29.33;;;27.37;;
15454;SDS011;21057;51.024;7.540;2023-02-19T13:02:05;33.37;;;31.13;;
15454;SDS011;21057;51.024;7.540;2023-02-19T13:04:41;29.50;;;27.63;;
15454;SDS011;21057;51.024;7.540;2023-02-19T13:07:12;30.60;;;28.43;;
15454;SDS011;21057;51.024;7.540;2023-02-19T13:09:50;29.30;;;27.40;;
15454;SDS011;21057;51.024;7.540;2023-02-19T13:12:28;30.03;;;28.13;;
15454;SDS011;21057;51.024;7.540;2023-02-19T13:17:53;32.43;;;30.43;;
15454;SDS011;21057;51.024;7.540;2023-02-19T13:20:24;30.87;;;28.97;;
15454;SDS011;21057;51.024;7.540;2023-02-19T13:22:59;31.07;;;29.07;;
15454;SDS011;21057;51.024;7.540;2023-02-19T13:28:57;30.53;;;27.97;;
15454;SDS011;21057;51.024;7.540;2023-02-19T13:31:38;29.73;;;27.93;;
15454;SDS011;21057;51.024;7.540;2023-02-19T13:34:24;30.60;;;28.63;;
15454;SDS011;21057;51.024;7.540;2023-02-19T13:37:00;31.90;;;29.93;;
15454;SDS011;21057;51.024;7.540;2023-02-19T13:39:29;32.97;;;30.77;;
15454;SDS011;21057;51.024;7.540;2023-02-19T13:41:56;31.80;;;29.80;;
15454;SDS011;21057;51.024;7.540;2023-02-19T13:47:11;32.70;;;30.60;;
15454;SDS011;21057;51.024;7.540;2023-02-19T13:50:15;32.77;;;30.67;;
15454;SDS011;21057;51.024;7.540;2023-02-19T13:53:00;31.43;;;29.30;;
15454;SDS011;21057;51.024;7.540;2023-02-19T13:55:46;32.47;;;30.20;;
15454;SDS011;21057;51.024;7.540;2023-02-19T14:04:48;32.77;;;29.83;;
15454;SDS011;21057;51.024;7.540;2023-02-19T14:25:35;31.50;;;29.20;;
15454;SDS011;21057;51.024;7.540;2023-02-19T14:28:27;33.37;;;30.90;;
15454;SDS011;21057;51.024;7.540;2023-02-19T14:31:02;32.50;;;30.00;;
15454;SDS011;21057;51.024;7.540;2023-02-19T14:33:57;31.87;;;29.57;;
15454;SDS011;21057;51.024;7.540;2023-02-19T14:36:30;32.43;;;29.70;;
15454;SDS011;21057;51.024;7.540;2023-02-19T14:39:01;30.50;;;28.20;;
15454;SDS011;21057;51.024;7.540;2023-02-19T14:41:31;32.50;;;29.73;;
15454;SDS011;21057;51.024;7.540;2023-02-19T14:44:05;32.60;;;29.90;;
15454;SDS011;21057;51.024;7.540;2023-02-19T14:46:38;33.80;;;31.37;;
15454;SDS011;21057;51.024;7.540;2023-02-19T14:49:12;35.60;;;32.73;;
15454;SDS011;21057;51.024;7.540;2023-02-19T14:51:44;36.40;;;33.20;;
15454;SDS011;21057;51.024;7.540;2023-02-19T14:54:16;33.97;;;31.57;;
15454;SDS011;21057;51.024;7.540;2023-02-19T14:56:46;34.20;;;31.50;;
15454;SDS011;21057;51.024;7.540;2023-02-19T14:59:21;31.80;;;29.50;;
15454;SDS011;21057;51.024;7.540;2023-02-19T15:01:54;33.47;;;30.43;;
15454;SDS011;21057;51.024;7.540;2023-02-19T15:04:23;33.07;;;30.57;;
15454;SDS011;21057;51.024;7.540;2023-02-19T15:06:52;32.00;;;29.60;;
15454;SDS011;21057;51.024;7.540;2023-02-19T15:09:22;32.43;;;30.00;;
15454;SDS011;21057;51.024;7.540;2023-02-19T15:11:55;31.53;;;29.23;;
15454;SDS011;21057;51.024;7.540;2023-02-19T15:14:22;32.00;;;29.53;;
15454;SDS011;21057;51.024;7.540;2023-02-19T15:16:53;33.57;;;30.33;;
15454;SDS011;21057;51.024;7.540;2023-02-19T15:19:23;32.70;;;30.27;;
15454;SDS011;21057;51.024;7.540;2023-02-19T15:21:50;31.60;;;29.10;;
15454;SDS011;21057;51.024;7.540;2023-02-19T15:24:20;31.60;;;29.00;;
15454;SDS011;21057;51.024;7.540;2023-02-19T15:26:50;32.80;;;30.33;;
15454;SDS011;21057;51.024;7.540;2023-02-19T15:29:19;32.07;;;29.40;;
15454;SDS011;21057;51.024;7.540;2023-02-19T15:31:49;32.33;;;29.87;;
15454;SDS011;21057;51.024;7.540;2023-02-19T15:34:24;31.53;;;29.13;;
15454;SDS011;21057;51.024;7.540;2023-02-19T15:36:54;33.13;;;30.37;;
15454;SDS011;21057;51.024;7.540;2023-02-19T15:39:24;32.37;;;29.10;;
15454;SDS011;21057;51.024;7.540;2023-02-19T15:41:56;31.93;;;29.53;;
15454;SDS011;21057;51.024;7.540;2023-02-19T15:44:36;32.73;;;30.40;;
15454;SDS011;21057;51.024;7.540;2023-02-19T15:47:12;31.70;;;29.37;;
15454;SDS011;21057;51.024;7.540;2023-02-19T15:49:48;32.73;;;30.27;;
15454;SDS011;21057;51.024;7.540;2023-02-19T15:52:23;34.13;;;31.87;;
15454;SDS011;21057;51.024;7.540;2023-02-19T15:57:58;35.57;;;33.03;;
15454;SDS011;21057;51.024;7.540;2023-02-19T16:00:31;35.47;;;32.87;;
15454;SDS011;21057;51.024;7.540;2023-02-19T16:03:04;34.60;;;32.33;;
15454;SDS011;21057;51.024;7.540;2023-02-19T16:05:38;34.47;;;32.07;;
15454;SDS011;21057;51.024;7.540;2023-02-19T16:08:06;35.43;;;32.63;;
15454;SDS011;21057;51.024;7.540;2023-02-19T16:10:52;34.57;;;31.90;;
15454;SDS011;21057;51.024;7.540;2023-02-19T16:13:22;35.17;;;32.00;;
15454;SDS011;21057;51.024;7.540;2023-02-19T16:16:00;35.27;;;32.67;;
15454;SDS011;21057;51.024;7.540;2023-02-19T16:18:37;36.27;;;32.60;;
15454;SDS011;21057;51.024;7.540;2023-02-19T16:21:13;37.50;;;34.70;;
15454;SDS011;21057;51.024;7.540;2023-02-19T16:23:41;37.13;;;34.03;;